sensor_id;sensor_type;location;lat;lon;timestamp;P1;durP1;ratioP1;P2;durP2;ratioP2
46651;SDS011;32377;52.182;5.398;2022-07-29T00:00:36;2.95;;;1.95;;
46651;SDS011;32377;52.182;5.398;2022-07-29T00:03:02;7.35;;;1.58;;
46651;SDS011;32377;52.182;5.398;2022-07-29T00:05:27;2.85;;;1.67;;
46651;SDS011;32377;52.182;5.398;2022-07-29T00:07:53;7.18;;;1.75;;
46651;SDS011;32377;52.182;5.398;2022-07-29T00:10:19;5.50;;;2.13;;
46651;SDS011;32377;52.182;5.398;2022-07-29T00:12:45;3.63;;;1.65;;
46651;SDS011;32377;52.182;5.398;2022-07-29T00:15:10;9.30;;;2.05;;
46651;SDS011;32377;52.182;5.398;2022-07-29T00:17:36;6.70;;;2.25;;
46651;SDS011;32377;52.182;5.398;2022-07-29T00:20:03;6.88;;;1.90;;
46651;SDS011;32377;52.182;5.398;2022-07-29T00:22:29;3.90;;;1.80;;
46651;SDS011;32377;52.182;5.398;2022-07-29T00:24:55;7.95;;;1.88;;
46651;SDS011;32377;52.182;5.398;2022-07-29T00:27:20;4.18;;;1.95;;
46651;SDS011;32377;52.182;5.398;2022-07-29T00:29:46;4.50;;;2.33;;
46651;SDS011;32377;52.182;5.398;2022-07-29T00:32:12;4.68;;;1.88;;
46651;SDS011;32377;52.182;5.398;2022-07-29T00:34:37;3.30;;;1.60;;
46651;SDS011;32377;52.182;5.398;2022-07-29T00:37:22;8.00;;;1.80;;
46651;SDS011;32377;52.182;5.398;2022-07-29T00:39:47;3.25;;;1.52;;
46651;SDS011;32377;52.182;5.398;2022-07-29T00:42:16;5.57;;;2.20;;
46651;SDS011;32377;52.182;5.398;2022-07-29T00:44:42;3.88;;;1.95;;
46651;SDS011;32377;52.182;5.398;2022-07-29T00:47:08;3.13;;;1.60;;
46651;SDS011;32377;52.182;5.398;2022-07-29T00:49:36;5.25;;;1.67;;
46651;SDS011;32377;52.182;5.398;2022-07-29T00:52:04;5.03;;;1.70;;
46651;SDS011;32377;52.182;5.398;2022-07-29T00:54:32;4.60;;;1.52;;
46651;SDS011;32377;52.182;5.398;2022-07-29T00:56:58;2.40;;;1.65;;
46651;SDS011;32377;52.182;5.398;2022-07-29T00:59:25;6.95;;;2.15;;
46651;SDS011;32377;52.182;5.398;2022-07-29T01:01:52;3.97;;;2.55;;
46651;SDS011;32377;52.182;5.398;2022-07-29T01:04:18;4.03;;;1.80;;
46651;SDS011;32377;52.182;5.398;2022-07-29T01:06:44;5.38;;;1.90;;
46651;SDS011;32377;52.182;5.398;2022-07-29T01:09:10;2.80;;;1.90;;
46651;SDS011;32377;52.182;5.398;2022-07-29T01:11:36;6.10;;;1.90;;
46651;SDS011;32377;52.182;5.398;2022-07-29T01:14:03;5.18;;;1.85;;
46651;SDS011;32377;52.182;5.398;2022-07-29T01:16:30;1.70;;;1.50;;
46651;SDS011;32377;52.182;5.398;2022-07-29T01:19:06;7.68;;;2.00;;
46651;SDS011;32377;52.182;5.398;2022-07-29T01:21:51;7.28;;;2.00;;
46651;SDS011;32377;52.182;5.398;2022-07-29T01:30:14;5.90;;;2.03;;
46651;SDS011;32377;52.182;5.398;2022-07-29T01:32:40;4.95;;;1.80;;
46651;SDS011;32377;52.182;5.398;2022-07-29T01:35:15;5.70;;;1.85;;
46651;SDS011;32377;52.182;5.398;2022-07-29T01:37:47;4.85;;;2.28;;
46651;SDS011;32377;52.182;5.398;2022-07-29T01:40:17;5.75;;;2.17;;
46651;SDS011;32377;52.182;5.398;2022-07-29T01:42:50;6.95;;;2.22;;
46651;SDS011;32377;52.182;5.398;2022-07-29T01:48:02;4.25;;;1.88;;
46651;SDS011;32377;52.182;5.398;2022-07-29T01:50:34;6.35;;;2.20;;
46651;SDS011;32377;52.182;5.398;2022-07-29T01:53:08;5.80;;;1.70;;
46651;SDS011;32377;52.182;5.398;2022-07-29T01:55:36;4.97;;;2.17;;
46651;SDS011;32377;52.182;5.398;2022-07-29T01:58:05;5.93;;;2.28;;
46651;SDS011;32377;52.182;5.398;2022-07-29T02:00:33;4.85;;;2.00;;
46651;SDS011;32377;52.182;5.398;2022-07-29T02:03:11;5.97;;;2.55;;
46651;SDS011;32377;52.182;5.398;2022-07-29T02:05:39;3.05;;;2.40;;
46651;SDS011;32377;52.182;5.398;2022-07-29T02:08:07;6.13;;;2.42;;
46651;SDS011;32377;52.182;5.398;2022-07-29T02:10:34;7.50;;;3.17;;
46651;SDS011;32377;52.182;5.398;2022-07-29T02:13:04;7.63;;;2.42;;
46651;SDS011;32377;52.182;5.398;2022-07-29T02:15:32;5.10;;;2.70;;
46651;SDS011;32377;52.182;5.398;2022-07-29T02:18:07;6.20;;;2.58;;
46651;SDS011;32377;52.182;5.398;2022-07-29T02:20:35;5.15;;;2.25;;
46651;SDS011;32377;52.182;5.398;2022-07-29T02:23:02;5.88;;;2.30;;
46651;SDS011;32377;52.182;5.398;2022-07-29T02:25:31;4.88;;;2.28;;
46651;SDS011;32377;52.182;5.398;2022-07-29T02:27:57;6.38;;;2.95;;
46651;SDS011;32377;52.182;5.398;2022-07-29T02:30:25;3.17;;;2.33;;
46651;SDS011;32377;52.182;5.398;2022-07-29T02:32:53;3.83;;;2.30;;
46651;SDS011;32377;52.182;5.398;2022-07-29T02:35:21;5.88;;;2.70;;
46651;SDS011;32377;52.182;5.398;2022-07-29T02:37:47;7.20;;;2.85;;
46651;SDS011;32377;52.182;5.398;2022-07-29T02:40:34;4.85;;;2.28;;
46651;SDS011;32377;52.182;5.398;2022-07-29T02:43:02;3.85;;;2.05;;
46651;SDS011;32377;52.182;5.398;2022-07-29T02:45:30;4.10;;;2.33;;
46651;SDS011;32377;52.182;5.398;2022-07-29T02:47:56;5.18;;;2.42;;
46651;SDS011;32377;52.182;5.398;2022-07-29T02:50:28;4.07;;;2.65;;
46651;SDS011;32377;52.182;5.398;2022-07-29T02:52:58;8.63;;;2.95;;
46651;SDS011;32377;52.182;5.398;2022-07-29T02:55:37;4.22;;;2.58;;
46651;SDS011;32377;52.182;5.398;2022-07-29T02:58:13;6.07;;;2.78;;
46651;SDS011;32377;52.182;5.398;2022-07-29T03:00:47;5.72;;;2.30;;
46651;SDS011;32377;52.182;5.398;2022-07-29T03:03:16;4.32;;;2.35;;
46651;SDS011;32377;52.182;5.398;2022-07-29T03:05:43;8.32;;;2.40;;
46651;SDS011;32377;52.182;5.398;2022-07-29T03:08:09;6.68;;;2.70;;
46651;SDS011;32377;52.182;5.398;2022-07-29T03:10:36;4.45;;;2.30;;
46651;SDS011;32377;52.182;5.398;2022-07-29T03:13:04;7.60;;;2.70;;
46651;SDS011;32377;52.182;5.398;2022-07-29T03:15:30;3.95;;;2.50;;
46651;SDS011;32377;52.182;5.398;2022-07-29T03:17:57;6.05;;;3.40;;
46651;SDS011;32377;52.182;5.398;2022-07-29T03:20:23;7.93;;;3.50;;
46651;SDS011;32377;52.182;5.398;2022-07-29T03:22:49;8.75;;;4.28;;
46651;SDS011;32377;52.182;5.398;2022-07-29T03:25:16;9.25;;;4.50;;
46651;SDS011;32377;52.182;5.398;2022-07-29T03:27:43;11.13;;;4.68;;
46651;SDS011;32377;52.182;5.398;2022-07-29T03:30:09;8.93;;;5.25;;
46651;SDS011;32377;52.182;5.398;2022-07-29T03:32:36;9.65;;;5.68;;
46651;SDS011;32377;52.182;5.398;2022-07-29T03:35:02;7.75;;;5.18;;
46651;SDS011;32377;52.182;5.398;2022-07-29T03:37:29;14.25;;;5.32;;
46651;SDS011;32377;52.182;5.398;2022-07-29T03:39:55;8.77;;;5.10;;
46651;SDS011;32377;52.182;5.398;2022-07-29T03:42:27;8.23;;;4.13;;
46651;SDS011;32377;52.182;5.398;2022-07-29T03:44:55;11.82;;;4.50;;
46651;SDS011;32377;52.182;5.398;2022-07-29T03:47:24;8.18;;;3.97;;
46651;SDS011;32377;52.182;5.398;2022-07-29T03:49:52;9.98;;;4.15;;
46651;SDS011;32377;52.182;5.398;2022-07-29T03:52:21;7.43;;;3.58;;
46651;SDS011;32377;52.182;5.398;2022-07-29T03:54:47;8.07;;;3.85;;
46651;SDS011;32377;52.182;5.398;2022-07-29T03:57:13;6.70;;;3.63;;
46651;SDS011;32377;52.182;5.398;2022-07-29T03:59:40;9.60;;;3.75;;
46651;SDS011;32377;52.182;5.398;2022-07-29T04:02:08;8.85;;;3.85;;
46651;SDS011;32377;52.182;5.398;2022-07-29T04:04:35;9.57;;;4.32;;
46651;SDS011;32377;52.182;5.398;2022-07-29T04:07:01;9.38;;;4.53;;
46651;SDS011;32377;52.182;5.398;2022-07-29T04:09:27;9.05;;;5.35;;
46651;SDS011;32377;52.182;5.398;2022-07-29T04:11:53;7.82;;;5.22;;
46651;SDS011;32377;52.182;5.398;2022-07-29T04:14:19;12.95;;;6.88;;
46651;SDS011;32377;52.182;5.398;2022-07-29T04:16:45;12.50;;;7.03;;
46651;SDS011;32377;52.182;5.398;2022-07-29T04:19:10;13.30;;;6.05;;
46651;SDS011;32377;52.182;5.398;2022-07-29T04:21:37;13.73;;;6.85;;
46651;SDS011;32377;52.182;5.398;2022-07-29T04:24:04;12.00;;;6.18;;
46651;SDS011;32377;52.182;5.398;2022-07-29T04:26:30;8.63;;;4.95;;
46651;SDS011;32377;52.182;5.398;2022-07-29T04:28:55;10.98;;;4.97;;
46651;SDS011;32377;52.182;5.398;2022-07-29T04:31:21;6.90;;;3.58;;
46651;SDS011;32377;52.182;5.398;2022-07-29T04:33:46;6.65;;;4.22;;
46651;SDS011;32377;52.182;5.398;2022-07-29T04:36:12;10.65;;;4.00;;
46651;SDS011;32377;52.182;5.398;2022-07-29T04:38:37;6.13;;;3.08;;
46651;SDS011;32377;52.182;5.398;2022-07-29T04:41:03;5.85;;;3.28;;
46651;SDS011;32377;52.182;5.398;2022-07-29T04:43:29;6.82;;;3.45;;
46651;SDS011;32377;52.182;5.398;2022-07-29T04:45:55;5.95;;;4.10;;
46651;SDS011;32377;52.182;5.398;2022-07-29T04:48:20;7.47;;;3.83;;
46651;SDS011;32377;52.182;5.398;2022-07-29T04:50:46;4.07;;;2.88;;
46651;SDS011;32377;52.182;5.398;2022-07-29T04:53:12;8.88;;;3.60;;
46651;SDS011;32377;52.182;5.398;2022-07-29T04:55:37;7.45;;;3.92;;
46651;SDS011;32377;52.182;5.398;2022-07-29T04:58:03;9.77;;;3.38;;
46651;SDS011;32377;52.182;5.398;2022-07-29T05:00:28;5.38;;;3.47;;
46651;SDS011;32377;52.182;5.398;2022-07-29T05:02:54;8.10;;;3.45;;
46651;SDS011;32377;52.182;5.398;2022-07-29T05:05:19;7.13;;;3.55;;
46651;SDS011;32377;52.182;5.398;2022-07-29T05:07:45;7.28;;;3.97;;
46651;SDS011;32377;52.182;5.398;2022-07-29T05:10:10;7.28;;;3.63;;
46651;SDS011;32377;52.182;5.398;2022-07-29T05:12:36;7.32;;;3.67;;
46651;SDS011;32377;52.182;5.398;2022-07-29T05:15:02;10.18;;;4.15;;
46651;SDS011;32377;52.182;5.398;2022-07-29T05:17:28;4.95;;;3.65;;
46651;SDS011;32377;52.182;5.398;2022-07-29T05:19:53;6.85;;;3.50;;
46651;SDS011;32377;52.182;5.398;2022-07-29T05:22:19;8.80;;;3.30;;
46651;SDS011;32377;52.182;5.398;2022-07-29T05:24:46;10.18;;;3.72;;
46651;SDS011;32377;52.182;5.398;2022-07-29T05:27:11;7.32;;;4.15;;
46651;SDS011;32377;52.182;5.398;2022-07-29T05:29:37;7.43;;;3.90;;
46651;SDS011;32377;52.182;5.398;2022-07-29T05:32:03;4.10;;;2.90;;
46651;SDS011;32377;52.182;5.398;2022-07-29T05:34:29;7.90;;;3.05;;
46651;SDS011;32377;52.182;5.398;2022-07-29T05:36:55;3.70;;;2.85;;
46651;SDS011;32377;52.182;5.398;2022-07-29T05:39:21;4.05;;;3.03;;
46651;SDS011;32377;52.182;5.398;2022-07-29T05:41:47;5.63;;;3.00;;
46651;SDS011;32377;52.182;5.398;2022-07-29T05:44:12;6.20;;;3.10;;
46651;SDS011;32377;52.182;5.398;2022-07-29T05:46:38;6.60;;;2.65;;
46651;SDS011;32377;52.182;5.398;2022-07-29T05:49:04;7.38;;;2.97;;
46651;SDS011;32377;52.182;5.398;2022-07-29T05:51:31;4.55;;;2.80;;
46651;SDS011;32377;52.182;5.398;2022-07-29T05:53:58;8.27;;;2.85;;
46651;SDS011;32377;52.182;5.398;2022-07-29T05:56:23;8.23;;;3.05;;
46651;SDS011;32377;52.182;5.398;2022-07-29T05:58:49;5.78;;;2.85;;
46651;SDS011;32377;52.182;5.398;2022-07-29T06:01:15;7.75;;;2.47;;
46651;SDS011;32377;52.182;5.398;2022-07-29T06:03:41;5.10;;;2.75;;
46651;SDS011;32377;52.182;5.398;2022-07-29T06:06:07;12.73;;;3.13;;
46651;SDS011;32377;52.182;5.398;2022-07-29T06:08:32;5.00;;;2.70;;
46651;SDS011;32377;52.182;5.398;2022-07-29T06:10:59;6.00;;;2.50;;
46651;SDS011;32377;52.182;5.398;2022-07-29T06:13:25;5.05;;;3.03;;
46651;SDS011;32377;52.182;5.398;2022-07-29T06:15:51;6.30;;;2.65;;
46651;SDS011;32377;52.182;5.398;2022-07-29T06:18:16;8.00;;;3.15;;
46651;SDS011;32377;52.182;5.398;2022-07-29T06:20:42;8.20;;;3.70;;
46651;SDS011;32377;52.182;5.398;2022-07-29T06:23:07;8.20;;;3.50;;
46651;SDS011;32377;52.182;5.398;2022-07-29T06:25:34;7.43;;;3.70;;
46651;SDS011;32377;52.182;5.398;2022-07-29T06:28:01;13.30;;;4.18;;
46651;SDS011;32377;52.182;5.398;2022-07-29T06:30:27;5.95;;;3.55;;
46651;SDS011;32377;52.182;5.398;2022-07-29T06:32:53;6.55;;;3.15;;
46651;SDS011;32377;52.182;5.398;2022-07-29T06:35:19;8.55;;;3.25;;
46651;SDS011;32377;52.182;5.398;2022-07-29T06:37:45;6.38;;;3.00;;
46651;SDS011;32377;52.182;5.398;2022-07-29T06:40:11;5.80;;;2.58;;
46651;SDS011;32377;52.182;5.398;2022-07-29T06:42:55;9.77;;;3.15;;
46651;SDS011;32377;52.182;5.398;2022-07-29T06:45:21;5.40;;;2.63;;
46651;SDS011;32377;52.182;5.398;2022-07-29T06:47:46;9.32;;;3.50;;
46651;SDS011;32377;52.182;5.398;2022-07-29T06:50:13;5.72;;;3.05;;
46651;SDS011;32377;52.182;5.398;2022-07-29T06:52:39;4.25;;;2.95;;
46651;SDS011;32377;52.182;5.398;2022-07-29T06:55:05;6.88;;;3.00;;
46651;SDS011;32377;52.182;5.398;2022-07-29T06:57:32;4.28;;;2.75;;
46651;SDS011;32377;52.182;5.398;2022-07-29T06:59:57;6.00;;;2.80;;
46651;SDS011;32377;52.182;5.398;2022-07-29T07:02:23;7.85;;;2.85;;
46651;SDS011;32377;52.182;5.398;2022-07-29T07:04:48;4.28;;;2.80;;
46651;SDS011;32377;52.182;5.398;2022-07-29T07:07:14;4.75;;;3.10;;
46651;SDS011;32377;52.182;5.398;2022-07-29T07:09:39;7.95;;;2.97;;
46651;SDS011;32377;52.182;5.398;2022-07-29T07:12:05;10.70;;;3.05;;
46651;SDS011;32377;52.182;5.398;2022-07-29T07:14:31;6.47;;;3.00;;
46651;SDS011;32377;52.182;5.398;2022-07-29T07:16:56;4.20;;;3.05;;
46651;SDS011;32377;52.182;5.398;2022-07-29T07:19:22;6.45;;;2.85;;
46651;SDS011;32377;52.182;5.398;2022-07-29T07:21:48;7.90;;;3.33;;
46651;SDS011;32377;52.182;5.398;2022-07-29T07:24:13;7.85;;;3.20;;
46651;SDS011;32377;52.182;5.398;2022-07-29T07:26:39;12.25;;;3.10;;
46651;SDS011;32377;52.182;5.398;2022-07-29T07:29:05;8.13;;;2.90;;
46651;SDS011;32377;52.182;5.398;2022-07-29T07:31:30;4.28;;;2.80;;
46651;SDS011;32377;52.182;5.398;2022-07-29T07:33:56;4.80;;;2.60;;
46651;SDS011;32377;52.182;5.398;2022-07-29T07:36:22;7.07;;;2.90;;
46651;SDS011;32377;52.182;5.398;2022-07-29T07:38:48;6.07;;;3.10;;
46651;SDS011;32377;52.182;5.398;2022-07-29T07:41:14;6.75;;;3.08;;
46651;SDS011;32377;52.182;5.398;2022-07-29T07:43:40;7.22;;;2.60;;
46651;SDS011;32377;52.182;5.398;2022-07-29T07:46:05;2.88;;;2.10;;
46651;SDS011;32377;52.182;5.398;2022-07-29T07:48:31;3.72;;;2.50;;
46651;SDS011;32377;52.182;5.398;2022-07-29T07:50:57;7.43;;;2.38;;
46651;SDS011;32377;52.182;5.398;2022-07-29T07:53:22;8.45;;;2.75;;
46651;SDS011;32377;52.182;5.398;2022-07-29T07:55:48;6.20;;;2.60;;
46651;SDS011;32377;52.182;5.398;2022-07-29T07:58:13;8.13;;;3.22;;
46651;SDS011;32377;52.182;5.398;2022-07-29T08:00:39;4.60;;;2.75;;
46651;SDS011;32377;52.182;5.398;2022-07-29T08:03:04;8.70;;;3.22;;
46651;SDS011;32377;52.182;5.398;2022-07-29T08:05:30;9.77;;;3.65;;
46651;SDS011;32377;52.182;5.398;2022-07-29T08:07:56;5.80;;;2.85;;
46651;SDS011;32377;52.182;5.398;2022-07-29T08:10:21;4.22;;;2.60;;
46651;SDS011;32377;52.182;5.398;2022-07-29T08:13:06;6.25;;;3.13;;
46651;SDS011;32377;52.182;5.398;2022-07-29T08:15:33;7.45;;;3.17;;
46651;SDS011;32377;52.182;5.398;2022-07-29T08:17:59;4.55;;;3.08;;
46651;SDS011;32377;52.182;5.398;2022-07-29T08:20:24;8.40;;;3.45;;
46651;SDS011;32377;52.182;5.398;2022-07-29T08:22:51;9.43;;;3.47;;
46651;SDS011;32377;52.182;5.398;2022-07-29T08:25:17;5.35;;;3.38;;
46651;SDS011;32377;52.182;5.398;2022-07-29T08:27:45;12.38;;;3.78;;
46651;SDS011;32377;52.182;5.398;2022-07-29T08:30:15;7.90;;;3.22;;
46651;SDS011;32377;52.182;5.398;2022-07-29T08:32:40;6.53;;;3.50;;
46651;SDS011;32377;52.182;5.398;2022-07-29T08:35:06;7.97;;;3.00;;
46651;SDS011;32377;52.182;5.398;2022-07-29T08:37:32;7.82;;;3.25;;
46651;SDS011;32377;52.182;5.398;2022-07-29T08:39:58;8.40;;;3.53;;
46651;SDS011;32377;52.182;5.398;2022-07-29T08:42:23;8.52;;;3.65;;
46651;SDS011;32377;52.182;5.398;2022-07-29T08:44:49;12.07;;;4.32;;
46651;SDS011;32377;52.182;5.398;2022-07-29T08:47:15;5.93;;;3.50;;
46651;SDS011;32377;52.182;5.398;2022-07-29T08:49:41;6.47;;;3.47;;
46651;SDS011;32377;52.182;5.398;2022-07-29T08:52:10;7.68;;;3.78;;
46651;SDS011;32377;52.182;5.398;2022-07-29T08:54:36;7.07;;;3.60;;
46651;SDS011;32377;52.182;5.398;2022-07-29T08:57:03;6.78;;;3.28;;
46651;SDS011;32377;52.182;5.398;2022-07-29T08:59:29;9.73;;;3.67;;
46651;SDS011;32377;52.182;5.398;2022-07-29T09:01:58;11.68;;;3.22;;
46651;SDS011;32377;52.182;5.398;2022-07-29T09:04:26;6.47;;;3.20;;
46651;SDS011;32377;52.182;5.398;2022-07-29T09:06:54;9.52;;;3.40;;
46651;SDS011;32377;52.182;5.398;2022-07-29T09:09:25;8.52;;;2.70;;
46651;SDS011;32377;52.182;5.398;2022-07-29T09:11:51;8.50;;;2.75;;
46651;SDS011;32377;52.182;5.398;2022-07-29T09:14:18;9.10;;;3.00;;
46651;SDS011;32377;52.182;5.398;2022-07-29T09:17:01;9.32;;;3.85;;
46651;SDS011;32377;52.182;5.398;2022-07-29T09:21:58;9.95;;;2.97;;
46651;SDS011;32377;52.182;5.398;2022-07-29T09:24:42;5.50;;;2.95;;
46651;SDS011;32377;52.182;5.398;2022-07-29T09:27:10;9.82;;;3.65;;
46651;SDS011;32377;52.182;5.398;2022-07-29T09:29:48;8.48;;;3.30;;
46651;SDS011;32377;52.182;5.398;2022-07-29T09:32:28;6.82;;;2.92;;
46651;SDS011;32377;52.182;5.398;2022-07-29T09:35:13;10.65;;;4.28;;
46651;SDS011;32377;52.182;5.398;2022-07-29T09:37:43;6.90;;;3.78;;
46651;SDS011;32377;52.182;5.398;2022-07-29T09:40:13;9.95;;;3.95;;
46651;SDS011;32377;52.182;5.398;2022-07-29T09:42:43;8.10;;;3.85;;
46651;SDS011;32377;52.182;5.398;2022-07-29T09:45:09;8.82;;;4.07;;
46651;SDS011;32377;52.182;5.398;2022-07-29T09:47:46;8.45;;;3.70;;
46651;SDS011;32377;52.182;5.398;2022-07-29T09:50:14;5.88;;;3.65;;
46651;SDS011;32377;52.182;5.398;2022-07-29T09:52:44;10.27;;;4.40;;
46651;SDS011;32377;52.182;5.398;2022-07-29T09:55:12;7.95;;;4.03;;
46651;SDS011;32377;52.182;5.398;2022-07-29T09:57:38;9.80;;;3.67;;
46651;SDS011;32377;52.182;5.398;2022-07-29T10:00:08;9.75;;;4.10;;
46651;SDS011;32377;52.182;5.398;2022-07-29T10:05:26;6.90;;;4.30;;
46651;SDS011;32377;52.182;5.398;2022-07-29T10:07:52;8.65;;;4.38;;
46651;SDS011;32377;52.182;5.398;2022-07-29T10:10:20;7.40;;;4.20;;
46651;SDS011;32377;52.182;5.398;2022-07-29T10:12:53;14.15;;;4.70;;
46651;SDS011;32377;52.182;5.398;2022-07-29T10:15:23;10.70;;;4.47;;
46651;SDS011;32377;52.182;5.398;2022-07-29T10:17:51;11.80;;;4.88;;
46651;SDS011;32377;52.182;5.398;2022-07-29T10:20:18;8.48;;;4.18;;
46651;SDS011;32377;52.182;5.398;2022-07-29T10:22:45;11.27;;;4.97;;
46651;SDS011;32377;52.182;5.398;2022-07-29T10:25:12;7.00;;;4.68;;
46651;SDS011;32377;52.182;5.398;2022-07-29T10:27:39;10.02;;;4.72;;
46651;SDS011;32377;52.182;5.398;2022-07-29T10:30:05;8.07;;;4.40;;
46651;SDS011;32377;52.182;5.398;2022-07-29T10:35:15;10.05;;;5.20;;
46651;SDS011;32377;52.182;5.398;2022-07-29T10:43:23;9.43;;;4.85;;
46651;SDS011;32377;52.182;5.398;2022-07-29T10:45:57;17.88;;;5.00;;
46651;SDS011;32377;52.182;5.398;2022-07-29T10:48:24;5.28;;;4.70;;
46651;SDS011;32377;52.182;5.398;2022-07-29T10:50:54;11.98;;;4.40;;
46651;SDS011;32377;52.182;5.398;2022-07-29T10:53:22;6.30;;;4.22;;
46651;SDS011;32377;52.182;5.398;2022-07-29T10:55:48;9.60;;;4.78;;
46651;SDS011;32377;52.182;5.398;2022-07-29T10:58:16;9.18;;;4.88;;
46651;SDS011;32377;52.182;5.398;2022-07-29T11:00:44;9.57;;;4.55;;
46651;SDS011;32377;52.182;5.398;2022-07-29T11:06:05;10.60;;;4.47;;
46651;SDS011;32377;52.182;5.398;2022-07-29T11:08:31;10.30;;;4.60;;
46651;SDS011;32377;52.182;5.398;2022-07-29T11:13:44;10.98;;;4.45;;
46651;SDS011;32377;52.182;5.398;2022-07-29T11:16:15;14.23;;;4.18;;
46651;SDS011;32377;52.182;5.398;2022-07-29T11:21:35;7.82;;;3.75;;
46651;SDS011;32377;52.182;5.398;2022-07-29T11:24:24;5.20;;;3.60;;
46651;SDS011;32377;52.182;5.398;2022-07-29T11:27:10;5.93;;;3.28;;
46651;SDS011;32377;52.182;5.398;2022-07-29T11:32:16;6.22;;;2.78;;
46651;SDS011;32377;52.182;5.398;2022-07-29T11:34:44;10.95;;;3.70;;
46651;SDS011;32377;52.182;5.398;2022-07-29T11:39:41;5.93;;;3.53;;
46651;SDS011;32377;52.182;5.398;2022-07-29T11:47:24;6.85;;;2.67;;
46651;SDS011;32377;52.182;5.398;2022-07-29T11:49:51;5.45;;;2.90;;
46651;SDS011;32377;52.182;5.398;2022-07-29T11:52:18;11.05;;;2.88;;
46651;SDS011;32377;52.182;5.398;2022-07-29T11:54:44;11.35;;;3.75;;
46651;SDS011;32377;52.182;5.398;2022-07-29T11:57:13;4.35;;;2.70;;
46651;SDS011;32377;52.182;5.398;2022-07-29T11:59:42;9.55;;;3.53;;
46651;SDS011;32377;52.182;5.398;2022-07-29T12:02:09;6.40;;;3.63;;
46651;SDS011;32377;52.182;5.398;2022-07-29T12:07:30;9.13;;;3.65;;
46651;SDS011;32377;52.182;5.398;2022-07-29T12:10:00;6.78;;;3.38;;
46651;SDS011;32377;52.182;5.398;2022-07-29T12:12:26;6.38;;;3.25;;
46651;SDS011;32377;52.182;5.398;2022-07-29T12:14:52;7.57;;;3.78;;
46651;SDS011;32377;52.182;5.398;2022-07-29T12:17:33;11.32;;;4.00;;
46651;SDS011;32377;52.182;5.398;2022-07-29T12:20:03;5.80;;;3.40;;
46651;SDS011;32377;52.182;5.398;2022-07-29T12:22:33;6.65;;;3.47;;
46651;SDS011;32377;52.182;5.398;2022-07-29T12:27:32;11.27;;;4.43;;
46651;SDS011;32377;52.182;5.398;2022-07-29T12:29:59;8.18;;;3.65;;
46651;SDS011;32377;52.182;5.398;2022-07-29T12:32:31;7.03;;;3.35;;
46651;SDS011;32377;52.182;5.398;2022-07-29T12:35:08;8.98;;;3.80;;
46651;SDS011;32377;52.182;5.398;2022-07-29T12:37:47;10.77;;;4.22;;
46651;SDS011;32377;52.182;5.398;2022-07-29T12:40:15;11.57;;;3.83;;
46651;SDS011;32377;52.182;5.398;2022-07-29T12:43:04;5.68;;;3.65;;
46651;SDS011;32377;52.182;5.398;2022-07-29T12:45:31;8.75;;;3.72;;
46651;SDS011;32377;52.182;5.398;2022-07-29T12:47:56;11.32;;;4.13;;
46651;SDS011;32377;52.182;5.398;2022-07-29T12:50:22;8.25;;;4.25;;
46651;SDS011;32377;52.182;5.398;2022-07-29T12:52:48;8.70;;;3.72;;
46651;SDS011;32377;52.182;5.398;2022-07-29T12:55:14;10.20;;;3.47;;
46651;SDS011;32377;52.182;5.398;2022-07-29T12:57:49;7.70;;;4.22;;
46651;SDS011;32377;52.182;5.398;2022-07-29T13:00:21;9.38;;;4.10;;
46651;SDS011;32377;52.182;5.398;2022-07-29T13:02:54;9.38;;;4.82;;
46651;SDS011;32377;52.182;5.398;2022-07-29T13:05:24;7.13;;;3.65;;
46651;SDS011;32377;52.182;5.398;2022-07-29T13:08:10;8.65;;;4.30;;
46651;SDS011;32377;52.182;5.398;2022-07-29T13:10:40;11.75;;;4.15;;
46651;SDS011;32377;52.182;5.398;2022-07-29T13:15:33;5.05;;;3.80;;
46651;SDS011;32377;52.182;5.398;2022-07-29T13:17:59;7.65;;;4.50;;
46651;SDS011;32377;52.182;5.398;2022-07-29T13:20:25;7.13;;;3.70;;
46651;SDS011;32377;52.182;5.398;2022-07-29T13:22:54;7.30;;;4.43;;
46651;SDS011;32377;52.182;5.398;2022-07-29T13:25:25;7.70;;;4.15;;
46651;SDS011;32377;52.182;5.398;2022-07-29T13:27:53;14.30;;;5.05;;
46651;SDS011;32377;52.182;5.398;2022-07-29T13:30:20;8.05;;;4.80;;
46651;SDS011;32377;52.182;5.398;2022-07-29T13:32:46;10.40;;;4.43;;
46651;SDS011;32377;52.182;5.398;2022-07-29T13:35:12;9.88;;;3.65;;
46651;SDS011;32377;52.182;5.398;2022-07-29T13:37:38;7.15;;;4.40;;
46651;SDS011;32377;52.182;5.398;2022-07-29T13:40:04;7.80;;;4.03;;
46651;SDS011;32377;52.182;5.398;2022-07-29T13:42:31;6.78;;;3.40;;
46651;SDS011;32377;52.182;5.398;2022-07-29T13:44:58;8.52;;;3.95;;
46651;SDS011;32377;52.182;5.398;2022-07-29T13:47:24;9.63;;;4.07;;
46651;SDS011;32377;52.182;5.398;2022-07-29T13:49:50;9.18;;;3.58;;
46651;SDS011;32377;52.182;5.398;2022-07-29T13:52:16;11.70;;;4.13;;
46651;SDS011;32377;52.182;5.398;2022-07-29T13:54:41;7.63;;;4.15;;
46651;SDS011;32377;52.182;5.398;2022-07-29T13:57:08;8.48;;;4.10;;
46651;SDS011;32377;52.182;5.398;2022-07-29T13:59:35;12.30;;;3.90;;
46651;SDS011;32377;52.182;5.398;2022-07-29T14:02:01;12.13;;;4.07;;
46651;SDS011;32377;52.182;5.398;2022-07-29T14:04:26;11.30;;;4.13;;
46651;SDS011;32377;52.182;5.398;2022-07-29T14:06:52;6.97;;;3.72;;
46651;SDS011;32377;52.182;5.398;2022-07-29T14:09:18;9.10;;;3.88;;
46651;SDS011;32377;52.182;5.398;2022-07-29T14:11:43;11.80;;;5.00;;
46651;SDS011;32377;52.182;5.398;2022-07-29T14:14:10;11.80;;;5.38;;
46651;SDS011;32377;52.182;5.398;2022-07-29T14:16:36;10.38;;;5.75;;
46651;SDS011;32377;52.182;5.398;2022-07-29T14:19:02;13.10;;;5.13;;
46651;SDS011;32377;52.182;5.398;2022-07-29T14:21:27;11.75;;;4.78;;
46651;SDS011;32377;52.182;5.398;2022-07-29T14:23:53;13.10;;;6.35;;
46651;SDS011;32377;52.182;5.398;2022-07-29T14:26:19;11.80;;;5.68;;
46651;SDS011;32377;52.182;5.398;2022-07-29T14:28:46;12.48;;;5.80;;
46651;SDS011;32377;52.182;5.398;2022-07-29T14:31:12;12.38;;;5.90;;
46651;SDS011;32377;52.182;5.398;2022-07-29T14:33:37;14.07;;;5.72;;
46651;SDS011;32377;52.182;5.398;2022-07-29T14:36:03;15.07;;;6.30;;
46651;SDS011;32377;52.182;5.398;2022-07-29T14:38:29;9.82;;;5.70;;
46651;SDS011;32377;52.182;5.398;2022-07-29T14:40:54;10.65;;;4.88;;
46651;SDS011;32377;52.182;5.398;2022-07-29T14:43:20;13.55;;;6.30;;
46651;SDS011;32377;52.182;5.398;2022-07-29T14:45:45;9.82;;;5.25;;
46651;SDS011;32377;52.182;5.398;2022-07-29T14:48:11;14.43;;;4.90;;
46651;SDS011;32377;52.182;5.398;2022-07-29T14:50:37;9.13;;;4.85;;
46651;SDS011;32377;52.182;5.398;2022-07-29T14:53:03;9.43;;;4.75;;
46651;SDS011;32377;52.182;5.398;2022-07-29T14:55:29;9.77;;;4.13;;
46651;SDS011;32377;52.182;5.398;2022-07-29T14:57:54;9.60;;;3.97;;
46651;SDS011;32377;52.182;5.398;2022-07-29T15:00:20;9.00;;;3.30;;
46651;SDS011;32377;52.182;5.398;2022-07-29T15:02:47;8.93;;;3.20;;
46651;SDS011;32377;52.182;5.398;2022-07-29T15:05:13;6.60;;;2.72;;
46651;SDS011;32377;52.182;5.398;2022-07-29T15:07:39;7.47;;;2.67;;
46651;SDS011;32377;52.182;5.398;2022-07-29T15:10:05;6.03;;;2.90;;
46651;SDS011;32377;52.182;5.398;2022-07-29T15:12:31;8.75;;;3.38;;
46651;SDS011;32377;52.182;5.398;2022-07-29T15:14:56;5.40;;;3.00;;
46651;SDS011;32377;52.182;5.398;2022-07-29T15:17:22;12.40;;;3.08;;
46651;SDS011;32377;52.182;5.398;2022-07-29T15:19:48;5.88;;;2.50;;
46651;SDS011;32377;52.182;5.398;2022-07-29T15:22:13;8.23;;;2.35;;
46651;SDS011;32377;52.182;5.398;2022-07-29T15:24:39;6.20;;;2.13;;
46651;SDS011;32377;52.182;5.398;2022-07-29T15:27:04;9.38;;;2.75;;
46651;SDS011;32377;52.182;5.398;2022-07-29T15:29:30;8.32;;;2.50;;
46651;SDS011;32377;52.182;5.398;2022-07-29T15:31:56;3.25;;;1.90;;
46651;SDS011;32377;52.182;5.398;2022-07-29T15:34:21;5.75;;;2.42;;
46651;SDS011;32377;52.182;5.398;2022-07-29T15:36:49;6.32;;;2.10;;